sensor_id;sensor_type;location;lat;lon;timestamp;P1;durP1;ratioP1;P2;durP2;ratioP2
3875;SDS011;1953;51.222;6.624;2022-09-12T00:01:13;53.07;;;29.10;;
3875;SDS011;1953;51.222;6.624;2022-09-12T00:06:39;51.13;;;28.73;;
3875;SDS011;1953;51.222;6.624;2022-09-12T00:11:21;51.40;;;29.57;;
3875;SDS011;1953;51.222;6.624;2022-09-12T00:16:04;49.53;;;28.27;;
3875;SDS011;1953;51.222;6.624;2022-09-12T00:20:47;51.53;;;29.40;;
3875;SDS011;1953;51.222;6.624;2022-09-12T00:25:31;46.67;;;27.50;;
3875;SDS011;1953;51.222;6.624;2022-09-12T00:30:13;49.03;;;29.50;;
3875;SDS011;1953;51.222;6.624;2022-09-12T00:34:56;51.43;;;29.93;;
3875;SDS011;1953;51.222;6.624;2022-09-12T00:39:38;48.67;;;28.53;;
3875;SDS011;1953;51.222;6.624;2022-09-12T00:49:31;52.40;;;29.03;;
3875;SDS011;1953;51.222;6.624;2022-09-12T00:54:20;50.70;;;27.80;;
3875;SDS011;1953;51.222;6.624;2022-09-12T00:59:07;55.10;;;29.80;;
3875;SDS011;1953;51.222;6.624;2022-09-12T01:03:54;51.57;;;30.33;;
3875;SDS011;1953;51.222;6.624;2022-09-12T01:08:37;58.13;;;30.00;;
3875;SDS011;1953;51.222;6.624;2022-09-12T01:13:21;48.10;;;28.00;;
3875;SDS011;1953;51.222;6.624;2022-09-12T01:18:08;56.80;;;29.57;;
3875;SDS011;1953;51.222;6.624;2022-09-12T01:23:05;49.00;;;28.67;;
3875;SDS011;1953;51.222;6.624;2022-09-12T01:28:23;51.33;;;28.80;;
3875;SDS011;1953;51.222;6.624;2022-09-12T01:33:26;54.47;;;30.20;;
3875;SDS011;1953;51.222;6.624;2022-09-12T01:38:30;58.07;;;30.87;;
3875;SDS011;1953;51.222;6.624;2022-09-12T01:43:18;52.23;;;30.00;;
3875;SDS011;1953;51.222;6.624;2022-09-12T01:48:08;59.67;;;30.23;;
3875;SDS011;1953;51.222;6.624;2022-09-12T01:52:55;64.13;;;32.00;;
3875;SDS011;1953;51.222;6.624;2022-09-12T01:57:42;64.17;;;33.67;;
3875;SDS011;1953;51.222;6.624;2022-09-12T02:02:30;65.30;;;32.33;;
3875;SDS011;1953;51.222;6.624;2022-09-12T02:07:17;59.50;;;31.63;;
3875;SDS011;1953;51.222;6.624;2022-09-12T02:12:03;62.27;;;31.80;;
3875;SDS011;1953;51.222;6.624;2022-09-12T02:16:50;59.30;;;30.73;;
3875;SDS011;1953;51.222;6.624;2022-09-12T02:21:36;71.70;;;36.03;;
3875;SDS011;1953;51.222;6.624;2022-09-12T02:26:28;69.30;;;34.90;;
3875;SDS011;1953;51.222;6.624;2022-09-12T02:31:18;65.00;;;33.03;;
3875;SDS011;1953;51.222;6.624;2022-09-12T02:36:07;67.73;;;33.60;;
3875;SDS011;1953;51.222;6.624;2022-09-12T02:40:55;72.97;;;34.37;;
3875;SDS011;1953;51.222;6.624;2022-09-12T02:45:38;67.70;;;32.37;;
3875;SDS011;1953;51.222;6.624;2022-09-12T02:50:22;75.23;;;34.43;;
3875;SDS011;1953;51.222;6.624;2022-09-12T02:55:05;78.90;;;34.77;;
3875;SDS011;1953;51.222;6.624;2022-09-12T02:59:51;69.80;;;34.33;;
3875;SDS011;1953;51.222;6.624;2022-09-12T03:04:40;75.00;;;34.97;;
3875;SDS011;1953;51.222;6.624;2022-09-12T03:09:35;85.10;;;32.80;;
3875;SDS011;1953;51.222;6.624;2022-09-12T03:14:31;70.43;;;33.37;;
3875;SDS011;1953;51.222;6.624;2022-09-12T03:19:32;63.90;;;31.70;;
3875;SDS011;1953;51.222;6.624;2022-09-12T03:24:25;74.23;;;33.80;;
3875;SDS011;1953;51.222;6.624;2022-09-12T03:29:15;71.70;;;34.37;;
3875;SDS011;1953;51.222;6.624;2022-09-12T03:33:59;74.27;;;33.20;;
3875;SDS011;1953;51.222;6.624;2022-09-12T03:38:42;65.03;;;31.40;;
3875;SDS011;1953;51.222;6.624;2022-09-12T03:43:25;63.80;;;31.40;;
3875;SDS011;1953;51.222;6.624;2022-09-12T03:48:08;61.27;;;30.27;;
3875;SDS011;1953;51.222;6.624;2022-09-12T03:52:51;61.57;;;31.57;;
3875;SDS011;1953;51.222;6.624;2022-09-12T03:57:34;60.63;;;30.40;;
3875;SDS011;1953;51.222;6.624;2022-09-12T04:02:17;61.90;;;30.37;;
3875;SDS011;1953;51.222;6.624;2022-09-12T04:07:01;61.60;;;30.70;;
3875;SDS011;1953;51.222;6.624;2022-09-12T04:11:43;63.73;;;30.50;;
3875;SDS011;1953;51.222;6.624;2022-09-12T04:16:25;66.10;;;30.30;;
3875;SDS011;1953;51.222;6.624;2022-09-12T04:21:09;60.67;;;30.47;;
3875;SDS011;1953;51.222;6.624;2022-09-12T04:25:54;60.30;;;30.07;;
3875;SDS011;1953;51.222;6.624;2022-09-12T04:30:37;61.63;;;30.23;;
3875;SDS011;1953;51.222;6.624;2022-09-12T04:35:19;56.87;;;29.23;;
3875;SDS011;1953;51.222;6.624;2022-09-12T04:40:02;57.03;;;30.20;;
3875;SDS011;1953;51.222;6.624;2022-09-12T04:44:46;61.63;;;28.77;;
3875;SDS011;1953;51.222;6.624;2022-09-12T04:49:29;52.70;;;27.37;;
3875;SDS011;1953;51.222;6.624;2022-09-12T04:54:12;56.77;;;30.40;;
3875;SDS011;1953;51.222;6.624;2022-09-12T04:58:57;56.97;;;30.00;;
3875;SDS011;1953;51.222;6.624;2022-09-12T05:03:43;52.03;;;28.37;;
3875;SDS011;1953;51.222;6.624;2022-09-12T05:08:26;51.43;;;27.50;;
3875;SDS011;1953;51.222;6.624;2022-09-12T05:13:08;56.83;;;28.00;;
3875;SDS011;1953;51.222;6.624;2022-09-12T05:17:51;48.53;;;26.53;;
3875;SDS011;1953;51.222;6.624;2022-09-12T05:22:35;48.90;;;26.10;;
3875;SDS011;1953;51.222;6.624;2022-09-12T05:27:17;48.13;;;25.80;;
3875;SDS011;1953;51.222;6.624;2022-09-12T05:32:00;44.70;;;24.93;;
3875;SDS011;1953;51.222;6.624;2022-09-12T05:36:43;47.80;;;25.90;;
3875;SDS011;1953;51.222;6.624;2022-09-12T05:41:27;41.77;;;23.60;;
3875;SDS011;1953;51.222;6.624;2022-09-12T05:46:11;47.10;;;24.73;;
3875;SDS011;1953;51.222;6.624;2022-09-12T05:50:58;37.90;;;23.00;;
3875;SDS011;1953;51.222;6.624;2022-09-12T05:55:42;40.67;;;22.20;;
3875;SDS011;1953;51.222;6.624;2022-09-12T06:00:26;41.17;;;22.80;;
3875;SDS011;1953;51.222;6.624;2022-09-12T06:05:08;38.63;;;22.30;;
3875;SDS011;1953;51.222;6.624;2022-09-12T06:09:51;40.80;;;21.43;;
3875;SDS011;1953;51.222;6.624;2022-09-12T06:14:33;34.27;;;21.77;;
3875;SDS011;1953;51.222;6.624;2022-09-12T06:19:18;39.33;;;21.40;;
3875;SDS011;1953;51.222;6.624;2022-09-12T06:24:02;34.90;;;20.17;;
3875;SDS011;1953;51.222;6.624;2022-09-12T06:28:44;31.10;;;19.83;;
3875;SDS011;1953;51.222;6.624;2022-09-12T06:33:27;27.67;;;18.13;;
3875;SDS011;1953;51.222;6.624;2022-09-12T06:38:11;28.63;;;19.07;;
3875;SDS011;1953;51.222;6.624;2022-09-12T06:42:53;27.10;;;18.60;;
3875;SDS011;1953;51.222;6.624;2022-09-12T06:47:36;31.10;;;17.40;;
3875;SDS011;1953;51.222;6.624;2022-09-12T06:52:18;27.60;;;17.87;;
3875;SDS011;1953;51.222;6.624;2022-09-12T06:57:02;26.80;;;17.90;;
3875;SDS011;1953;51.222;6.624;2022-09-12T07:01:45;30.13;;;17.90;;
3875;SDS011;1953;51.222;6.624;2022-09-12T07:06:27;27.90;;;19.03;;
3875;SDS011;1953;51.222;6.624;2022-09-12T07:11:13;31.03;;;18.93;;
3875;SDS011;1953;51.222;6.624;2022-09-12T07:16:01;29.20;;;17.80;;
3875;SDS011;1953;51.222;6.624;2022-09-12T07:20:45;32.77;;;18.30;;
3875;SDS011;1953;51.222;6.624;2022-09-12T07:25:27;27.10;;;18.97;;
3875;SDS011;1953;51.222;6.624;2022-09-12T07:30:10;28.80;;;18.50;;
3875;SDS011;1953;51.222;6.624;2022-09-12T07:34:54;29.83;;;19.30;;
3875;SDS011;1953;51.222;6.624;2022-09-12T07:39:36;28.80;;;18.67;;
3875;SDS011;1953;51.222;6.624;2022-09-12T07:44:19;25.50;;;18.27;;
3875;SDS011;1953;51.222;6.624;2022-09-12T07:49:03;31.47;;;19.47;;
3875;SDS011;1953;51.222;6.624;2022-09-12T07:53:47;25.70;;;17.50;;
3875;SDS011;1953;51.222;6.624;2022-09-12T07:58:30;26.07;;;17.83;;
3875;SDS011;1953;51.222;6.624;2022-09-12T08:03:13;31.70;;;18.93;;
3875;SDS011;1953;51.222;6.624;2022-09-12T08:07:56;26.10;;;18.57;;
3875;SDS011;1953;51.222;6.624;2022-09-12T08:12:40;34.20;;;20.27;;
3875;SDS011;1953;51.222;6.624;2022-09-12T08:17:22;30.23;;;17.67;;
3875;SDS011;1953;51.222;6.624;2022-09-12T08:22:05;27.20;;;17.67;;
3875;SDS011;1953;51.222;6.624;2022-09-12T08:26:48;30.33;;;18.47;;
3875;SDS011;1953;51.222;6.624;2022-09-12T08:31:32;29.57;;;19.40;;
3875;SDS011;1953;51.222;6.624;2022-09-12T08:36:17;27.17;;;17.47;;
3875;SDS011;1953;51.222;6.624;2022-09-12T08:41:02;25.10;;;16.83;;
3875;SDS011;1953;51.222;6.624;2022-09-12T08:45:52;24.10;;;16.07;;
3875;SDS011;1953;51.222;6.624;2022-09-12T08:50:42;26.53;;;16.00;;
3875;SDS011;1953;51.222;6.624;2022-09-12T08:55:31;23.63;;;14.67;;
3875;SDS011;1953;51.222;6.624;2022-09-12T09:00:15;24.50;;;14.57;;
3875;SDS011;1953;51.222;6.624;2022-09-12T09:05:00;24.67;;;14.93;;
3875;SDS011;1953;51.222;6.624;2022-09-12T09:09:59;22.53;;;15.57;;
3875;SDS011;1953;51.222;6.624;2022-09-12T09:14:52;18.60;;;14.30;;
3875;SDS011;1953;51.222;6.624;2022-09-12T09:19:50;22.53;;;14.63;;
3875;SDS011;1953;51.222;6.624;2022-09-12T09:24:38;20.60;;;14.30;;
3875;SDS011;1953;51.222;6.624;2022-09-12T09:29:28;21.40;;;13.93;;
3875;SDS011;1953;51.222;6.624;2022-09-12T09:34:17;22.23;;;13.60;;
3875;SDS011;1953;51.222;6.624;2022-09-12T09:39:03;18.33;;;12.27;;
3875;SDS011;1953;51.222;6.624;2022-09-12T09:43:47;17.37;;;13.00;;
3875;SDS011;1953;51.222;6.624;2022-09-12T09:48:31;17.03;;;12.70;;
3875;SDS011;1953;51.222;6.624;2022-09-12T09:53:23;15.63;;;11.50;;
3875;SDS011;1953;51.222;6.624;2022-09-12T09:58:10;19.63;;;12.87;;
3875;SDS011;1953;51.222;6.624;2022-09-12T10:03:23;13.70;;;11.13;;
3875;SDS011;1953;51.222;6.624;2022-09-12T10:08:19;11.20;;;8.90;;
3875;SDS011;1953;51.222;6.624;2022-09-12T10:13:07;14.17;;;10.63;;
3875;SDS011;1953;51.222;6.624;2022-09-12T10:17:59;11.10;;;10.00;;
3875;SDS011;1953;51.222;6.624;2022-09-12T10:22:45;14.43;;;10.20;;
3875;SDS011;1953;51.222;6.624;2022-09-12T10:27:30;18.00;;;9.30;;
3875;SDS011;1953;51.222;6.624;2022-09-12T10:32:18;11.43;;;8.73;;
3875;SDS011;1953;51.222;6.624;2022-09-12T10:37:05;8.30;;;6.50;;
3875;SDS011;1953;51.222;6.624;2022-09-12T10:41:49;11.77;;;8.83;;
3875;SDS011;1953;51.222;6.624;2022-09-12T10:46:33;8.60;;;7.10;;
3875;SDS011;1953;51.222;6.624;2022-09-12T10:51:25;7.40;;;6.70;;
3875;SDS011;1953;51.222;6.624;2022-09-12T10:56:09;8.17;;;7.37;;
3875;SDS011;1953;51.222;6.624;2022-09-12T11:00:57;6.17;;;5.37;;
3875;SDS011;1953;51.222;6.624;2022-09-12T11:05:52;5.70;;;5.00;;
3875;SDS011;1953;51.222;6.624;2022-09-12T11:10:39;5.87;;;5.30;;
3875;SDS011;1953;51.222;6.624;2022-09-12T11:15:34;8.60;;;6.30;;
3875;SDS011;1953;51.222;6.624;2022-09-12T11:20:34;7.73;;;6.77;;
3875;SDS011;1953;51.222;6.624;2022-09-12T11:25:35;5.93;;;5.43;;
3875;SDS011;1953;51.222;6.624;2022-09-12T11:30:23;5.03;;;4.63;;
3875;SDS011;1953;51.222;6.624;2022-09-12T11:35:08;5.60;;;5.10;;
3875;SDS011;1953;51.222;6.624;2022-09-12T11:40:02;5.17;;;4.67;;
3875;SDS011;1953;51.222;6.624;2022-09-12T11:44:58;6.00;;;5.40;;
3875;SDS011;1953;51.222;6.624;2022-09-12T11:49:46;8.30;;;5.20;;
3875;SDS011;1953;51.222;6.624;2022-09-12T11:54:35;5.50;;;4.87;;
3875;SDS011;1953;51.222;6.624;2022-09-12T11:59:27;5.97;;;5.40;;
3875;SDS011;1953;51.222;6.624;2022-09-12T12:07:41;5.73;;;4.50;;
3875;SDS011;1953;51.222;6.624;2022-09-12T12:12:28;7.13;;;4.30;;
3875;SDS011;1953;51.222;6.624;2022-09-12T12:17:14;5.30;;;4.80;;
3875;SDS011;1953;51.222;6.624;2022-09-12T12:22:03;5.30;;;4.90;;
3875;SDS011;1953;51.222;6.624;2022-09-12T12:26:57;6.17;;;4.13;;
3875;SDS011;1953;51.222;6.624;2022-09-12T12:36:57;6.07;;;5.50;;
3875;SDS011;1953;51.222;6.624;2022-09-12T12:42:02;6.20;;;4.70;;
3875;SDS011;1953;51.222;6.624;2022-09-12T12:46:58;4.82;;;4.47;;
3875;SDS011;1953;51.222;6.624;2022-09-12T12:51:55;5.43;;;4.88;;
3875;SDS011;1953;51.222;6.624;2022-09-12T12:56:41;5.20;;;4.75;;
3875;SDS011;1953;51.222;6.624;2022-09-12T13:01:25;4.53;;;4.22;;
3875;SDS011;1953;51.222;6.624;2022-09-12T13:06:18;4.45;;;4.13;;
3875;SDS011;1953;51.222;6.624;2022-09-12T13:11:10;7.90;;;3.90;;
3875;SDS011;1953;51.222;6.624;2022-09-12T13:15:55;4.90;;;4.50;;
3875;SDS011;1953;51.222;6.624;2022-09-12T13:20:43;5.78;;;3.92;;
3875;SDS011;1953;51.222;6.624;2022-09-12T13:25:31;5.03;;;4.45;;
3875;SDS011;1953;51.222;6.624;2022-09-12T13:30:15;4.47;;;4.18;;
3875;SDS011;1953;51.222;6.624;2022-09-12T13:35:01;4.75;;;4.35;;
3875;SDS011;1953;51.222;6.624;2022-09-12T13:39:52;4.40;;;4.15;;
3875;SDS011;1953;51.222;6.624;2022-09-12T13:44:48;4.40;;;4.00;;
3875;SDS011;1953;51.222;6.624;2022-09-12T13:49:34;4.45;;;4.20;;
3875;SDS011;1953;51.222;6.624;2022-09-12T13:54:18;3.45;;;3.25;;
3875;SDS011;1953;51.222;6.624;2022-09-12T13:59:02;5.00;;;4.22;;
3875;SDS011;1953;51.222;6.624;2022-09-12T14:03:53;4.10;;;3.80;;
3875;SDS011;1953;51.222;6.624;2022-09-12T14:08:54;4.03;;;3.72;;
3875;SDS011;1953;51.222;6.624;2022-09-12T14:13:38;3.55;;;3.45;;
3875;SDS011;1953;51.222;6.624;2022-09-12T14:18:23;4.53;;;4.13;;
3875;SDS011;1953;51.222;6.624;2022-09-12T14:28:09;3.47;;;3.38;;
3875;SDS011;1953;51.222;6.624;2022-09-12T14:33:11;3.90;;;3.60;;
3875;SDS011;1953;51.222;6.624;2022-09-12T14:38:05;6.15;;;3.45;;
3875;SDS011;1953;51.222;6.624;2022-09-12T14:42:49;4.43;;;4.07;;
3875;SDS011;1953;51.222;6.624;2022-09-12T14:47:34;4.13;;;3.83;;
3875;SDS011;1953;51.222;6.624;2022-09-12T14:52:24;3.92;;;3.63;;
3875;SDS011;1953;51.222;6.624;2022-09-12T15:02:26;3.88;;;3.67;;
3875;SDS011;1953;51.222;6.624;2022-09-12T15:07:14;3.72;;;3.53;;
3875;SDS011;1953;51.222;6.624;2022-09-12T15:12:04;3.38;;;3.28;;
3875;SDS011;1953;51.222;6.624;2022-09-12T15:16:48;4.68;;;3.63;;
3875;SDS011;1953;51.222;6.624;2022-09-12T15:21:30;3.63;;;3.45;;
3875;SDS011;1953;51.222;6.624;2022-09-12T15:26:13;3.58;;;3.38;;
3875;SDS011;1953;51.222;6.624;2022-09-12T15:30:59;3.85;;;3.65;;
3875;SDS011;1953;51.222;6.624;2022-09-12T15:35:48;4.00;;;3.70;;
3875;SDS011;1953;51.222;6.624;2022-09-12T15:40:30;3.72;;;3.53;;
3875;SDS011;1953;51.222;6.624;2022-09-12T15:45:14;4.28;;;3.97;;
3875;SDS011;1953;51.222;6.624;2022-09-12T15:49:59;4.28;;;3.60;;
3875;SDS011;1953;51.222;6.624;2022-09-12T15:54:43;4.07;;;3.78;;
3875;SDS011;1953;51.222;6.624;2022-09-12T15:59:25;4.57;;;4.22;;
3875;SDS011;1953;51.222;6.624;2022-09-12T16:04:16;4.00;;;3.80;;
3875;SDS011;1953;51.222;6.624;2022-09-12T16:09:01;4.00;;;3.80;;
3875;SDS011;1953;51.222;6.624;2022-09-12T16:13:45;4.13;;;3.92;;
3875;SDS011;1953;51.222;6.624;2022-09-12T16:18:28;4.03;;;3.72;;
3875;SDS011;1953;51.222;6.624;2022-09-12T16:23:10;4.05;;;3.85;;
3875;SDS011;1953;51.222;6.624;2022-09-12T16:27:54;4.00;;;3.70;;
3875;SDS011;1953;51.222;6.624;2022-09-12T16:32:37;3.90;;;3.60;;
3875;SDS011;1953;51.222;6.624;2022-09-12T16:37:20;3.88;;;3.58;;
3875;SDS011;1953;51.222;6.624;2022-09-12T16:42:03;4.00;;;3.60;;
3875;SDS011;1953;51.222;6.624;2022-09-12T16:46:45;4.00;;;3.80;;
3875;SDS011;1953;51.222;6.624;2022-09-12T16:51:31;4.20;;;3.90;;
3875;SDS011;1953;51.222;6.624;2022-09-12T16:56:15;4.65;;;3.50;;
3875;SDS011;1953;51.222;6.624;2022-09-12T17:00:58;4.05;;;3.85;;
3875;SDS011;1953;51.222;6.624;2022-09-12T17:05:41;4.63;;;3.80;;
3875;SDS011;1953;51.222;6.624;2022-09-12T17:10:25;4.35;;;4.05;;
3875;SDS011;1953;51.222;6.624;2022-09-12T17:15:10;4.20;;;3.90;;
3875;SDS011;1953;51.222;6.624;2022-09-12T17:19:52;4.82;;;4.43;;
3875;SDS011;1953;51.222;6.624;2022-09-12T17:24:35;4.70;;;4.40;;
3875;SDS011;1953;51.222;6.624;2022-09-12T17:29:19;4.55;;;4.25;;
3875;SDS011;1953;51.222;6.624;2022-09-12T17:34:01;4.72;;;4.30;;
3875;SDS011;1953;51.222;6.624;2022-09-12T17:38:45;5.35;;;4.85;;
3875;SDS011;1953;51.222;6.624;2022-09-12T17:43:27;4.80;;;4.40;;
3875;SDS011;1953;51.222;6.624;2022-09-12T17:48:12;10.20;;;4.35;;
3875;SDS011;1953;51.222;6.624;2022-09-12T17:52:55;9.27;;;5.70;;
3875;SDS011;1953;51.222;6.624;2022-09-12T17:57:37;4.67;;;4.37;;
3875;SDS011;1953;51.222;6.624;2022-09-12T18:02:20;6.30;;;4.97;;
3875;SDS011;1953;51.222;6.624;2022-09-12T18:07:04;5.73;;;4.60;;
3875;SDS011;1953;51.222;6.624;2022-09-12T18:11:46;5.00;;;4.70;;
3875;SDS011;1953;51.222;6.624;2022-09-12T18:16:29;6.37;;;5.17;;
3875;SDS011;1953;51.222;6.624;2022-09-12T18:21:12;12.50;;;5.73;;
3875;SDS011;1953;51.222;6.624;2022-09-12T18:26:00;9.23;;;5.80;;
3875;SDS011;1953;51.222;6.624;2022-09-12T18:30:21;8.23;;;5.20;;
3875;SDS011;1953;51.222;6.624;2022-09-12T18:35:04;6.53;;;5.93;;
3875;SDS011;1953;51.222;6.624;2022-09-12T18:39:47;6.73;;;6.03;;
3875;SDS011;1953;51.222;6.624;2022-09-12T18:44:47;8.03;;;5.73;;
3875;SDS011;1953;51.222;6.624;2022-09-12T18:49:29;7.97;;;6.03;;
3875;SDS011;1953;51.222;6.624;2022-09-12T18:54:12;6.50;;;5.90;;
3875;SDS011;1953;51.222;6.624;2022-09-12T18:58:57;6.87;;;6.17;;
3875;SDS011;1953;51.222;6.624;2022-09-12T19:03:42;6.60;;;6.00;;
3875;SDS011;1953;51.222;6.624;2022-09-12T19:08:25;10.80;;;6.33;;
3875;SDS011;1953;51.222;6.624;2022-09-12T19:13:07;7.57;;;6.27;;
3875;SDS011;1953;51.222;6.624;2022-09-12T19:17:49;8.87;;;6.40;;
3875;SDS011;1953;51.222;6.624;2022-09-12T19:22:33;8.10;;;6.30;;
3875;SDS011;1953;51.222;6.624;2022-09-12T19:27:16;9.20;;;5.80;;
3875;SDS011;1953;51.222;6.624;2022-09-12T19:31:58;7.87;;;6.50;;
3875;SDS011;1953;51.222;6.624;2022-09-12T19:36:41;6.80;;;6.10;;
3875;SDS011;1953;51.222;6.624;2022-09-12T19:41:25;14.67;;;5.90;;
3875;SDS011;1953;51.222;6.624;2022-09-12T19:46:12;8.30;;;7.07;;
3875;SDS011;1953;51.222;6.624;2022-09-12T19:50:57;10.17;;;7.00;;
3875;SDS011;1953;51.222;6.624;2022-09-12T19:55:40;6.90;;;6.20;;
3875;SDS011;1953;51.222;6.624;2022-09-12T20:00:24;7.13;;;6.53;;
3875;SDS011;1953;51.222;6.624;2022-09-12T20:05:07;9.33;;;7.07;;
3875;SDS011;1953;51.222;6.624;2022-09-12T20:09:50;8.00;;;7.27;;
3875;SDS011;1953;51.222;6.624;2022-09-12T20:14:32;9.07;;;6.90;;
3875;SDS011;1953;51.222;6.624;2022-09-12T20:19:16;10.90;;;8.03;;
3875;SDS011;1953;51.222;6.624;2022-09-12T20:23:59;9.80;;;7.70;;
3875;SDS011;1953;51.222;6.624;2022-09-12T20:28:42;8.90;;;7.10;;
3875;SDS011;1953;51.222;6.624;2022-09-12T20:33:25;14.90;;;8.20;;
3875;SDS011;1953;51.222;6.624;2022-09-12T20:38:09;12.20;;;7.30;;
3875;SDS011;1953;51.222;6.624;2022-09-12T20:42:51;7.53;;;6.77;;
3875;SDS011;1953;51.222;6.624;2022-09-12T20:47:33;10.47;;;6.80;;
3875;SDS011;1953;51.222;6.624;2022-09-12T20:52:16;15.10;;;5.83;;
3875;SDS011;1953;51.222;6.624;2022-09-12T20:57:00;6.63;;;6.03;;
3875;SDS011;1953;51.222;6.624;2022-09-12T21:01:42;6.83;;;6.10;;
3875;SDS011;1953;51.222;6.624;2022-09-12T21:06:24;7.33;;;6.10;;
3875;SDS011;1953;51.222;6.624;2022-09-12T21:11:07;8.37;;;6.10;;
3875;SDS011;1953;51.222;6.624;2022-09-12T21:15:57;9.73;;;6.10;;
3875;SDS011;1953;51.222;6.624;2022-09-12T21:20:40;8.33;;;6.80;;
3875;SDS011;1953;51.222;6.624;2022-09-12T21:25:23;8.37;;;6.90;;
3875;SDS011;1953;51.222;6.624;2022-09-12T21:30:05;9.97;;;5.90;;
3875;SDS011;1953;51.222;6.624;2022-09-12T21:34:50;11.57;;;6.33;;
3875;SDS011;1953;51.222;6.624;2022-09-12T21:39:32;6.97;;;5.80;;
3875;SDS011;1953;51.222;6.624;2022-09-12T21:44:15;6.27;;;5.67;;
3875;SDS011;1953;51.222;6.624;2022-09-12T21:48:57;8.83;;;5.83;;
3875;SDS011;1953;51.222;6.624;2022-09-12T21:53:41;6.33;;;5.73;;
3875;SDS011;1953;51.222;6.624;2022-09-12T21:58:23;6.80;;;6.10;;
3875;SDS011;1953;51.222;6.624;2022-09-12T22:03:06;7.33;;;6.30;;
3875;SDS011;1953;51.222;6.624;2022-09-12T22:07:50;15.40;;;6.10;;
3875;SDS011;1953;51.222;6.624;2022-09-12T22:12:33;7.17;;;6.47;;
3875;SDS011;1953;51.222;6.624;2022-09-12T22:17:16;5.80;;;5.27;;
3875;SDS011;1953;51.222;6.624;2022-09-12T22:21:58;7.03;;;5.40;;
3875;SDS011;1953;51.222;6.624;2022-09-12T22:26:59;5.93;;;5.33;;
3875;SDS011;1953;51.222;6.624;2022-09-12T22:31:45;5.33;;;4.87;;
3875;SDS011;1953;51.222;6.624;2022-09-12T22:36:28;6.40;;;5.80;;
3875;SDS011;1953;51.222;6.624;2022-09-12T22:41:11;5.57;;;5.07;;
3875;SDS011;1953;51.222;6.624;2022-09-12T22:45:53;7.40;;;5.10;;
3875;SDS011;1953;51.222;6.624;2022-09-12T22:50:37;5.90;;;4.73;;
3875;SDS011;1953;51.222;6.624;2022-09-12T22:55:19;5.83;;;5.00;;
3875;SDS011;1953;51.222;6.624;2022-09-12T23:00:02;5.70;;;5.10;;
3875;SDS011;1953;51.222;6.624;2022-09-12T23:04:46;7.60;;;5.00;;
3875;SDS011;1953;51.222;6.624;2022-09-12T23:09:30;8.27;;;4.70;;
3875;SDS011;1953;51.222;6.624;2022-09-12T23:14:12;8.83;;;4.60;;
3875;SDS011;1953;51.222;6.624;2022-09-12T23:18:55;5.93;;;4.73;;
3875;SDS011;1953;51.222;6.624;2022-09-12T23:23:38;5.50;;;4.80;;
3875;SDS011;1953;51.222;6.624;2022-09-12T23:28:22;6.43;;;4.60;;
3875;SDS011;1953;51.222;6.624;2022-09-12T23:33:04;17.53;;;4.93;;
3875;SDS011;1953;51.222;6.624;2022-09-12T23:37:46;7.90;;;5.43;;
3875;SDS011;1953;51.222;6.624;2022-09-12T23:42:29;7.27;;;5.03;;
3875;SDS011;1953;51.222;6.624;2022-09-12T23:47:13;6.50;;;5.70;;
3875;SDS011;1953;51.222;6.624;2022-09-12T23:51:58;5.93;;;4.60;;
3875;SDS011;1953;51.222;6.624;2022-09-12T23:56:40;7.00;;;5.20;;
